Terminal Aerodrome Forecast
Issued by NWS

Home | Current Version | Previous Version | Text Only | Print | Product List | Glossary On
Versions: 1 2 3 4 5 6 7 8 9 10 11 12 13 14 15 16 17 18 19 20 21 22 23 24 25 26 27 28 29 30 31 32 33 34 35 36
000
FTUS43 KGLD 191859 AAA
TAFMCK
TAF AMD
KMCK 191859Z 1919/2018 21004KT 1SM BR OVC003
     FM192100 18004KT 3SM BR BKN003
     FM192200 15005KT P6SM SCT010
     FM200300 18004KT 4SM BR BKN003
     FM201000 VRB03KT 1 1/2SM BR BKN003
     FM201300 VRB03KT 2SM BR BKN003=

USA.gov is the U.S. government's official web portal to all federal, state and local government web resources and services.